Time;durP1;ratioP1;P1;durP2;ratioP2;P2;SDS_P1;SDS_P2;PMS_P1;PMS_P2;Temp;Humidity;BMP_temperature;BMP_pressure;BME280_temperature;BME280_humidity;BME280_pressure;Samples;Min_cycle;Max_cycle;Signal;HPM_P1;HPM_P2
2023/01/29 00:01:16;;;;;;;10.20;7.88;;;;;;;-0.58;100.00;61940.06;4984884;28;20296;-80
2023/01/29 00:03:43;;;;;;;14.02;9.50;;;;;;;-0.61;100.00;61934.50;4996764;28;20285;-81
2023/01/29 00:06:11;;;;;;;14.27;8.57;;;;;;;-0.58;100.00;61937.56;4996509;28;20291;-81
2023/01/29 00:08:40;;;;;;;11.75;6.88;;;;;;;-0.62;100.00;61933.47;4980957;28;20227;-79
2023/01/29 00:11:08;;;;;;;8.73;7.05;;;;;;;-0.52;100.00;61945.72;4992030;28;20239;-81
2023/01/29 00:13:36;;;;;;;8.02;5.88;;;;;;;-0.52;100.00;61946.19;4994012;28;20204;-79
2023/01/29 00:16:04;;;;;;;9.43;6.38;;;;;;;-0.68;100.00;61931.81;4985103;28;20224;-77
2023/01/29 00:18:32;;;;;;;11.30;7.15;;;;;;;-0.76;100.00;61921.63;4990371;28;20220;-83
2023/01/29 00:20:58;;;;;;;9.45;6.13;;;;;;;-0.87;100.00;61910.38;4989972;28;20223;-78
2023/01/29 00:23:25;;;;;;;9.60;6.38;;;;;;;-1.04;100.00;61890.47;4990831;28;20216;-79
2023/01/29 00:25:54;;;;;;;7.28;4.75;;;;;;;-1.19;100.00;61877.59;4973435;28;20369;-78
2023/01/29 00:28:21;;;;;;;10.90;6.00;;;;;;;-1.19;100.00;61877.59;4988433;28;20251;-81
2023/01/29 00:30:48;;;;;;;7.03;4.63;;;;;;;-1.13;100.00;61883.75;4979634;28;20208;-80
2023/01/29 00:33:15;;;;;;;7.47;4.53;;;;;;;-1.14;100.00;61882.75;4990395;28;20204;-82
2023/01/29 00:35:42;;;;;;;6.72;5.55;;;;;;;-1.21;100.00;61873.06;4989799;28;20214;-79
2023/01/29 00:38:09;;;;;;;6.97;4.75;;;;;;;-1.21;100.00;61873.56;4971236;28;20205;-78
2023/01/29 00:46:11;;;;;;;9.43;5.78;;;;;;;-1.14;100.00;61882.75;4990427;28;20230;-80
2023/01/29 00:48:39;;;;;;;6.47;5.07;;;;;;;-1.17;100.00;61882.66;4990486;28;20200;-79
2023/01/29 00:51:06;;;;;;;5.90;4.65;;;;;;;-1.24;100.00;61870.00;4980724;28;20537;-81
2023/01/29 00:53:32;;;;;;;8.35;5.65;;;;;;;-1.24;100.00;61873.00;4971062;29;20209;-80
2023/01/29 00:55:59;;;;;;;7.72;5.95;;;;;;;-1.34;100.00;61860.28;4976648;28;20205;-78
2023/01/29 00:58:33;;;;;;;4.85;4.50;;;;;;;-1.31;100.00;61862.81;4972064;29;20268;-79
2023/01/29 01:01:01;;;;;;;8.68;6.35;;;;;;;-1.30;100.00;61873.84;4975100;28;20214;-79
2023/01/29 01:03:28;;;;;;;8.10;6.28;;;;;;;-1.20;100.00;61876.59;4982856;28;20244;-82
2023/01/29 01:06:05;;;;;;;14.07;6.65;;;;;;;-1.12;100.00;61886.78;4989989;28;20247;-80
2023/01/29 01:11:16;;;;;;;7.00;4.60;;;;;;;-1.26;100.00;61873.44;4985954;28;20307;-78
2023/01/29 01:13:45;;;;;;;4.38;4.00;;;;;;;-1.30;100.00;61863.88;4990478;28;20295;-78
2023/01/29 01:16:14;;;;;;;8.65;5.20;;;;;;;-1.31;100.00;61863.34;4985118;28;20255;-78
2023/01/29 01:18:41;;;;;;;5.60;5.07;;;;;;;-1.31;100.00;61865.31;4974642;28;20211;-81
2023/01/29 01:21:09;;;;;;;4.70;4.30;;;;;;;-1.39;100.00;61855.16;4981735;28;20225;-78
2023/01/29 01:23:36;;;;;;;9.63;7.05;;;;;;;-1.36;100.00;61862.72;4988849;28;20210;-80
2023/01/29 01:26:09;;;;;;;6.65;5.55;;;;;;;-1.46;100.00;61853.00;4977473;28;20252;-78
2023/01/29 01:28:36;;;;;;;12.50;6.30;;;;;;;-1.26;100.00;61870.97;4981664;28;20235;-80
2023/01/29 01:31:10;;;;;;;9.25;5.60;;;;;;;-1.27;100.00;61869.44;4989840;28;20557;-78
2023/01/29 01:33:38;;;;;;;12.38;6.28;;;;;;;-1.32;100.00;61861.81;4990224;28;20509;-80
2023/01/29 01:36:08;;;;;;;9.77;5.57;;;;;;;-1.15;100.00;61881.72;4988440;28;20412;-77
2023/01/29 01:38:36;;;;;;;7.60;5.80;;;;;;;-1.24;100.00;61872.50;4987125;28;20212;-80
2023/01/29 01:41:03;;;;;;;9.60;6.03;;;;;;;-1.28;100.00;61868.41;4989858;28;20255;-80
2023/01/29 01:43:48;;;;;;;9.85;7.35;;;;;;;-1.17;100.00;61880.19;4990907;28;20200;-79
2023/01/29 01:46:17;;;;;;;12.40;6.20;;;;;;;-1.29;100.00;61870.38;4991524;28;20232;-80
2023/01/29 01:48:46;;;;;;;8.13;5.93;;;;;;;-1.52;100.00;61839.34;4975219;28;20259;-78
2023/01/29 01:51:15;;;;;;;7.50;5.35;;;;;;;-1.22;100.00;61874.53;4977837;28;20224;-78
2023/01/29 01:53:50;;;;;;;6.22;4.35;;;;;;;-1.27;100.00;61874.41;4982697;28;20506;-77
2023/01/29 01:56:21;;;;;;;8.35;5.75;;;;;;;-1.28;100.00;61868.41;4976609;28;20558;-78
2023/01/29 01:58:52;;;;;;;4.47;4.07;;;;;;;-1.46;100.00;61849.97;4980674;28;20271;-78
2023/01/29 02:01:26;;;;;;;10.23;6.43;;;;;;;-1.12;100.00;61882.28;4981816;28;20236;-81
2023/01/29 02:09:34;;;;;;;8.32;5.32;;;;;;;-1.21;100.00;61873.06;4970139;29;20228;-78
2023/01/29 02:12:03;;;;;;;6.40;5.50;;;;;;;-1.03;100.00;61891.50;4971369;28;20533;-77
2023/01/29 02:14:31;;;;;;;8.60;6.03;;;;;;;-1.03;100.00;61894.00;4974701;28;20525;-81
2023/01/29 02:17:00;;;;;;;7.28;5.15;;;;;;;-1.28;100.00;61868.41;4982985;28;20231;-81
2023/01/29 02:19:38;;;;;;;8.43;5.75;;;;;;;-1.21;100.00;61871.06;4987184;28;20200;-81
2023/01/29 02:22:47;;;;;;;7.47;5.25;;;;;;;-1.25;100.00;61879.47;4976767;28;20215;-78
2023/01/29 02:25:37;;;;;;;7.82;6.03;;;;;;;-1.42;100.00;61852.09;4989122;28;20212;-78
2023/01/29 02:28:32;;;;;;;8.50;5.93;;;;;;;-1.44;100.00;61852.03;4984474;28;20232;-80
2023/01/29 02:31:08;;;;;;;5.53;4.35;;;;;;;-1.44;100.00;61849.53;4977943;28;20207;-81
2023/01/29 02:33:43;;;;;;;7.75;5.60;;;;;;;-1.38;100.00;61858.19;4986442;28;20211;-79
2023/01/29 02:36:20;;;;;;;7.95;5.88;;;;;;;-1.38;100.00;61861.19;4978176;28;20240;-80
2023/01/29 02:38:56;;;;;;;9.45;5.80;;;;;;;-1.32;100.00;61867.31;4968948;28;20259;-80
2023/01/29 02:41:28;;;;;;;4.40;3.30;;;;;;;-1.29;100.00;61867.38;4986414;28;20251;-78
2023/01/29 02:44:04;;;;;;;5.85;5.15;;;;;;;-1.49;100.00;61844.94;4980834;28;20263;-78
2023/01/29 02:46:37;;;;;;;6.70;6.10;;;;;;;-1.36;100.00;61858.22;4987436;28;20223;-80
2023/01/29 02:49:11;;;;;;;7.35;5.68;;;;;;;-1.43;100.00;61853.03;4984005;28;20231;-81
2023/01/29 02:51:44;;;;;;;4.38;3.97;;;;;;;-1.50;100.00;61843.91;4981428;28;20227;-78
2023/01/29 02:54:18;;;;;;;8.88;6.30;;;;;;;-1.51;100.00;61840.41;4975704;28;20211;-81
2023/01/29 02:56:51;;;;;;;9.57;6.88;;;;;;;-1.62;100.00;61833.59;4973067;28;20227;-81
2023/01/29 02:59:24;;;;;;;8.02;5.47;;;;;;;-1.60;100.00;61833.69;4978540;28;20258;-80
2023/01/29 03:01:56;;;;;;;10.45;6.55;;;;;;;-1.43;100.00;61850.56;4988429;28;20231;-80
2023/01/29 03:04:27;;;;;;;9.75;5.75;;;;;;;-1.28;100.00;61865.91;4989728;28;20200;-81
2023/01/29 03:06:58;;;;;;;9.00;6.30;;;;;;;-1.22;100.00;61869.53;4991638;28;20275;-78
2023/01/29 03:09:32;;;;;;;6.70;5.38;;;;;;;-1.15;100.00;61879.22;4987842;28;20504;-81
2023/01/29 03:12:17;;;;;;;9.65;6.53;;;;;;;-1.13;100.00;61883.25;4971159;28;20248;-80
2023/01/29 03:17:37;;;;;;;6.38;5.28;;;;;;;-1.00;100.00;61897.06;4969953;28;20216;-81
2023/01/29 03:20:11;;;;;;;6.78;5.30;;;;;;;-0.98;100.00;61896.59;4982879;28;20204;-81
2023/01/29 03:22:40;;;;;;;5.47;4.63;;;;;;;-0.99;100.00;61898.09;4989080;28;20283;-80
2023/01/29 03:33:40;;;;;;;6.35;3.70;;;;;;;-0.92;100.00;61904.75;4969582;28;20227;-80
2023/01/29 03:36:12;;;;;;;4.13;3.78;;;;;;;-0.82;100.00;61918.00;4984537;28;20286;-82
2023/01/29 03:38:39;;;;;;;3.75;3.45;;;;;;;-0.79;100.00;61915.53;4986551;28;20204;-79
2023/01/29 03:41:10;;;;;;;4.50;4.10;;;;;;;-0.77;100.00;61920.63;4988689;28;20236;-79
2023/01/29 03:43:45;;;;;;;3.72;3.42;;;;;;;-0.79;100.00;61921.06;4987263;28;20268;-80
2023/01/29 03:46:21;;;;;;;3.67;3.38;;;;;;;-0.71;100.00;61924.25;4980114;28;20222;-81
2023/01/29 03:48:54;;;;;;;3.53;3.25;;;;;;;-0.67;100.00;61930.84;4989582;28;20223;-79
2023/01/29 03:51:27;;;;;;;2.75;2.55;;;;;;;-0.74;100.00;61923.19;4991296;28;20219;-78
2023/01/29 03:54:04;;;;;;;3.42;2.90;;;;;;;-0.71;100.00;61926.25;4992245;28;20460;-81
2023/01/29 03:56:44;;;;;;;3.20;2.65;;;;;;;-0.69;100.00;61926.28;4982419;28;20456;-80
2023/01/29 03:59:21;;;;;;;2.65;2.45;;;;;;;-0.68;100.00;61932.34;4972780;29;20208;-79
2023/01/29 04:01:54;;;;;;;5.03;3.67;;;;;;;-0.73;100.00;61924.19;4980122;28;20251;-80
2023/01/29 04:04:26;;;;;;;3.63;3.22;;;;;;;-0.74;100.00;61926.19;4991729;28;20213;-79
2023/01/29 04:06:57;;;;;;;3.00;2.72;;;;;;;-0.83;100.00;61911.47;4979508;28;20232;-79
2023/01/29 04:09:31;;;;;;;2.53;2.38;;;;;;;-0.73;100.00;61926.69;4989871;28;20239;-79
2023/01/29 04:12:02;;;;;;;2.70;2.45;;;;;;;-0.84;100.00;61915.44;4987302;28;20228;-77
2023/01/29 04:14:31;;;;;;;2.17;2.08;;;;;;;-0.75;100.00;61919.66;4990534;28;20208;-81
2023/01/29 04:17:03;;;;;;;2.40;2.22;;;;;;;-0.78;100.00;61917.09;4980921;28;20284;-79
2023/01/29 04:19:30;;;;;;;2.35;2.15;;;;;;;-0.74;100.00;61920.69;4973628;28;20196;-79
2023/01/29 04:22:03;;;;;;;3.10;2.90;;;;;;;-0.75;100.00;61922.66;4989918;28;20243;-77
2023/01/29 04:24:32;;;;;;;3.40;1.80;;;;;;;-0.80;100.00;61915.03;4992721;28;20196;-78
2023/01/29 04:27:13;;;;;;;2.22;2.10;;;;;;;-0.79;100.00;61918.03;4984057;28;20227;-80
2023/01/29 04:29:50;;;;;;;2.45;2.35;;;;;;;-0.84;100.00;61912.94;4990215;28;20235;-79
2023/01/29 04:32:24;;;;;;;2.75;2.55;;;;;;;-0.85;100.00;61914.94;4991160;28;20296;-80
2023/01/29 04:35:00;;;;;;;2.42;2.05;;;;;;;-0.75;100.00;61922.66;4972517;28;20204;-81
2023/01/29 04:37:37;;;;;;;2.92;2.58;;;;;;;-0.72;100.00;61927.72;4977945;28;20237;-81
2023/01/29 04:40:16;;;;;;;2.78;2.58;;;;;;;-0.76;100.00;61916.13;4975358;28;20204;-80
2023/01/29 04:42:50;;;;;;;2.97;2.67;;;;;;;-0.80;100.00;61917.03;4981601;28;20244;-81
2023/01/29 04:45:24;;;;;;;2.53;2.33;;;;;;;-0.81;100.00;61916.00;4971580;28;20228;-81
2023/01/29 04:48:01;;;;;;;3.33;2.80;;;;;;;-0.81;100.00;61911.00;4989758;28;20483;-78
2023/01/29 04:50:33;;;;;;;2.45;2.28;;;;;;;-0.86;100.00;61910.91;4986829;28;20232;-80
2023/01/29 04:53:07;;;;;;;2.45;2.25;;;;;;;-0.79;100.00;61918.03;4990422;28;20258;-80
2023/01/29 04:55:40;;;;;;;2.70;2.50;;;;;;;-0.90;100.00;61906.78;4986123;28;20193;-81
2023/01/29 04:58:13;;;;;;;2.75;2.65;;;;;;;-0.85;100.00;61912.44;4989194;28;20212;-80
2023/01/29 05:00:43;;;;;;;2.88;2.65;;;;;;;-0.89;100.00;61905.81;4987982;28;20211;-82
2023/01/29 05:03:13;;;;;;;2.72;2.53;;;;;;;-0.90;100.00;61906.78;4980828;28;20224;-80
2023/01/29 05:05:45;;;;;;;3.10;2.90;;;;;;;-0.86;100.00;61908.41;4977949;28;20208;-80
2023/01/29 05:08:16;;;;;;;2.25;2.15;;;;;;;-0.82;100.00;61914.97;4989382;28;20226;-79
2023/01/29 05:10:43;;;;;;;2.80;2.60;;;;;;;-0.88;100.00;61909.34;4988145;28;20613;-79
2023/01/29 05:13:13;;;;;;;3.75;2.33;;;;;;;-0.82;100.00;61915.50;4989957;28;20401;-79
2023/01/29 05:15:44;;;;;;;3.47;2.65;;;;;;;-0.87;100.00;61905.38;4979571;28;20212;-80
2023/01/29 05:18:12;;;;;;;3.13;2.70;;;;;;;-1.10;100.00;61894.31;4975902;28;20267;-81
2023/01/29 05:20:41;;;;;;;3.05;2.75;;;;;;;-0.96;100.00;61903.66;4982904;28;20260;-80
2023/01/29 05:23:10;;;;;;;2.55;2.35;;;;;;;-0.86;100.00;61910.91;4970656;28;20214;-80
2023/01/29 05:25:37;;;;;;;2.50;2.30;;;;;;;-0.91;100.00;61911.28;4988557;28;20216;-79
2023/01/29 05:28:04;;;;;;;2.83;2.63;;;;;;;-0.90;100.00;61907.31;4978543;28;20236;-78
2023/01/29 05:30:33;;;;;;;3.28;2.97;;;;;;;-0.80;100.00;61917.03;4971570;28;20212;-79
2023/01/29 05:33:00;;;;;;;2.60;2.40;;;;;;;-0.92;100.00;61902.75;4977140;28;20231;-81
2023/01/29 05:35:29;;;;;;;2.85;2.65;;;;;;;-1.08;100.00;61888.88;4987726;28;20208;-80
2023/01/29 05:37:56;;;;;;;2.70;2.50;;;;;;;-0.95;100.00;61904.16;4988573;28;20251;-81
2023/01/29 05:40:24;;;;;;;2.72;2.53;;;;;;;-1.00;100.00;61894.06;4991165;28;20259;-82
2023/01/29 05:42:51;;;;;;;3.03;2.72;;;;;;;-1.21;100.00;61876.06;4986277;28;20220;-78
2023/01/29 05:45:19;;;;;;;2.75;2.55;;;;;;;-1.08;100.00;61885.84;4988706;28;20245;-81
2023/01/29 05:47:46;;;;;;;4.03;3.70;;;;;;;-0.93;100.00;61903.72;4981216;28;20292;-81
2023/01/29 05:50:14;;;;;;;4.75;3.70;;;;;;;-0.97;100.00;61900.16;4976167;28;20207;-80
2023/01/29 05:52:42;;;;;;;4.47;3.58;;;;;;;-0.92;100.00;61904.75;4981721;28;20232;-78
2023/01/29 05:55:11;;;;;;;3.45;2.85;;;;;;;-0.93;100.00;61899.22;4974441;28;20506;-81
2023/01/29 05:57:40;;;;;;;3.30;3.10;;;;;;;-0.85;100.00;61912.44;4982179;28;20537;-80
2023/01/29 06:00:08;;;;;;;3.60;3.30;;;;;;;-0.92;100.00;61904.75;4984930;28;20209;-79
2023/01/29 06:02:35;;;;;;;3.50;3.25;;;;;;;-0.80;100.00;61920.03;4969756;28;20221;-76
2023/01/29 06:05:02;;;;;;;3.83;3.53;;;;;;;-0.83;100.00;61918.97;4985446;28;20208;-81
2023/01/29 06:07:29;;;;;;;3.90;3.58;;;;;;;-0.81;100.00;61913.50;4985619;28;20228;-80
2023/01/29 06:09:58;;;;;;;3.08;2.83;;;;;;;-1.14;100.00;61879.72;4971876;28;20244;-81
2023/01/29 06:12:26;;;;;;;4.45;3.80;;;;;;;-0.88;100.00;61911.84;4978422;28;20219;-81
2023/01/29 06:14:53;;;;;;;3.53;3.22;;;;;;;-0.82;100.00;61917.47;4984055;28;20243;-81
2023/01/29 06:17:20;;;;;;;4.90;4.07;;;;;;;-1.02;100.00;61890.03;4988611;28;20223;-80
2023/01/29 06:19:47;;;;;;;3.42;3.03;;;;;;;-0.91;100.00;61906.28;4981906;28;20396;-80
2023/01/29 06:22:15;;;;;;;3.33;3.03;;;;;;;-0.73;100.00;61924.72;4982599;28;20296;-79
2023/01/29 06:24:42;;;;;;;3.47;3.25;;;;;;;-0.81;100.00;61913.50;4973504;28;20223;-79
2023/01/29 06:27:10;;;;;;;3.80;3.10;;;;;;;-0.89;100.00;61908.31;4988352;28;20246;-79
2023/01/29 06:29:38;;;;;;;4.60;4.15;;;;;;;-0.92;100.00;61902.25;4984518;28;20255;-80
2023/01/29 06:32:05;;;;;;;4.75;3.80;;;;;;;-0.73;100.00;61927.22;4977903;28;20271;-80
2023/01/29 06:34:32;;;;;;;4.93;4.53;;;;;;;-0.85;100.00;61911.91;4972335;28;20513;-80
2023/01/29 06:37:00;;;;;;;4.35;3.97;;;;;;;-0.81;100.00;61913.50;4980913;28;20239;-81
2023/01/29 06:39:26;;;;;;;2.65;2.42;;;;;;;-0.97;100.00;61899.63;4984036;28;20211;-75
2023/01/29 06:41:53;;;;;;;4.60;3.70;;;;;;;-0.96;100.00;61898.66;4980320;28;20263;-80
2023/01/29 06:44:23;;;;;;;5.50;5.00;;;;;;;-0.94;100.00;61900.72;4972697;28;20227;-79
2023/01/29 06:46:50;;;;;;;3.90;3.38;;;;;;;-0.84;100.00;61915.44;4982143;28;20230;-80
2023/01/29 06:49:17;;;;;;;5.10;3.35;;;;;;;-0.75;100.00;61925.16;4973850;28;20545;-81
2023/01/29 06:51:45;;;;;;;5.32;4.10;;;;;;;-0.83;100.00;61909.47;4971904;28;20259;-81
2023/01/29 06:54:12;;;;;;;6.72;4.55;;;;;;;-0.61;100.00;61929.50;4982224;28;20218;-81
2023/01/29 06:56:39;;;;;;;4.85;4.45;;;;;;;-0.54;100.00;61946.16;4979935;28;20225;-81
2023/01/29 06:59:06;;;;;;;4.85;3.67;;;;;;;-0.68;100.00;61934.84;4975951;28;20252;-78
2023/01/29 07:01:35;;;;;;;6.28;4.82;;;;;;;-0.88;100.00;61906.34;4973140;28;20268;-82
2023/01/29 07:04:02;;;;;;;4.53;4.20;;;;;;;-0.77;100.00;61922.59;4972709;28;20497;-80
2023/01/29 07:06:30;;;;;;;4.63;3.15;;;;;;;-0.98;100.00;61899.09;4973662;28;20251;-77
2023/01/29 07:08:57;;;;;;;5.80;4.45;;;;;;;-0.85;100.00;61912.44;4988629;28;20246;-83
2023/01/29 07:11:23;;;;;;;3.03;2.45;;;;;;;-0.57;100.00;61940.59;4984200;28;20228;-79
2023/01/29 07:13:50;;;;;;;4.28;3.88;;;;;;;-0.57;100.00;61943.09;4985806;28;20219;-80
2023/01/29 07:16:18;;;;;;;4.60;4.28;;;;;;;-0.77;100.00;61917.59;4987375;28;20234;-82
2023/01/29 07:18:46;;;;;;;4.63;4.22;;;;;;;-0.74;100.00;61925.69;4981642;28;20545;-81
2023/01/29 07:21:14;;;;;;;4.35;4.03;;;;;;;-0.69;100.00;61933.78;4970928;29;20540;-80
2023/01/29 07:23:41;;;;;;;4.95;3.95;;;;;;;-0.46;100.00;61954.34;4981155;28;20360;-83
2023/01/29 07:26:08;;;;;;;8.10;5.28;;;;;;;-0.52;100.00;61943.69;4992776;28;20323;-81
2023/01/29 07:28:37;;;;;;;4.80;4.30;;;;;;;-0.27;100.00;61966.31;4992304;28;20223;-82
2023/01/29 07:31:05;;;;;;;7.43;5.65;;;;;;;-0.36;100.00;61962.59;4980605;28;20237;-80
2023/01/29 07:33:32;;;;;;;7.13;5.38;;;;;;;-0.18;100.00;61981.03;4985231;28;20218;-80
2023/01/29 07:36:01;;;;;;;6.22;5.60;;;;;;;-0.16;100.00;61985.09;4987117;28;20204;-81
2023/01/29 07:38:28;;;;;;;4.97;4.47;;;;;;;-0.10;100.00;61991.22;4984315;28;20215;-80
2023/01/29 07:40:55;;;;;;;7.53;5.78;;;;;;;0.05;100.00;62008.59;4983167;28;20216;-81
2023/01/29 07:43:24;;;;;;;6.60;4.82;;;;;;;-0.04;100.00;61994.88;4981834;28;20192;-81
2023/01/29 07:45:51;;;;;;;6.53;5.85;;;;;;;-0.03;100.00;61998.91;4984101;28;20253;-80
2023/01/29 07:48:18;;;;;;;5.05;4.60;;;;;;;-0.19;100.00;61980.00;4981651;28;20568;-77
2023/01/29 07:50:45;;;;;;;6.75;5.50;;;;;;;-0.03;100.00;61995.91;4987353;28;20215;-79
2023/01/29 07:53:15;;;;;;;5.93;4.60;;;;;;;0.23;100.00;62022.03;4982631;28;20355;-76
2023/01/29 07:55:45;;;;;;;6.70;5.10;;;;;;;0.15;100.00;62014.34;4982022;28;20555;-82
2023/01/29 07:58:12;;;;;;;7.40;5.18;;;;;;;0.27;100.00;62026.66;4984573;28;20224;-80
2023/01/29 08:00:39;;;;;;;6.75;5.60;;;;;;;0.42;100.00;62042.03;4984358;28;20209;-83
2023/01/29 08:03:11;;;;;;;7.25;6.13;;;;;;;0.53;100.00;62050.81;4986931;28;20239;-78
2023/01/29 08:05:38;;;;;;;6.57;5.63;;;;;;;0.50;100.00;62054.72;4990970;28;20216;-80
2023/01/29 08:08:06;;;;;;;8.13;5.47;;;;;;;0.25;100.00;62024.59;4990639;28;20271;-79
2023/01/29 08:10:34;;;;;;;7.90;6.00;;;;;;;0.17;100.00;62015.88;4988312;28;20248;-82
2023/01/29 08:13:02;;;;;;;6.53;5.57;;;;;;;0.43;100.00;62045.53;4985950;28;20246;-82
2023/01/29 08:15:30;;;;;;;7.05;5.22;;;;;;;-0.11;100.00;61988.22;4977357;28;20213;-82
2023/01/29 08:17:58;;;;;;;6.13;5.05;;;;;;;0.10;100.00;62009.22;4982351;28;20238;-80
2023/01/29 08:20:25;;;;;;;4.93;4.38;;;;;;;-0.38;100.00;61958.03;4988122;28;20208;-79
2023/01/29 08:23:00;;;;;;;7.35;5.78;;;;;;;-0.28;100.00;61970.81;4991750;28;20232;-77
2023/01/29 08:25:27;;;;;;;7.47;6.00;;;;;;;-0.30;100.00;61968.75;4990941;28;20215;-79
2023/01/29 08:27:56;;;;;;;5.97;5.35;;;;;;;-0.35;100.00;61958.13;4991210;28;20316;-80
2023/01/29 08:30:24;;;;;;;7.03;5.57;;;;;;;-0.31;100.00;61967.22;4992588;28;20236;-82
2023/01/29 08:32:51;;;;;;;7.78;5.13;;;;;;;-0.28;100.00;61968.31;4992489;28;20220;-81
2023/01/29 08:35:19;;;;;;;6.72;5.68;;;;;;;-0.21;100.00;61972.97;4989505;28;20216;-82
2023/01/29 08:37:53;;;;;;;10.35;6.43;;;;;;;-0.22;100.00;61976.44;4991771;28;20242;-78
2023/01/29 08:40:20;;;;;;;9.48;7.60;;;;;;;-0.18;100.00;61983.53;4973890;28;20236;-81
2023/01/29 08:42:47;;;;;;;7.20;5.88;;;;;;;-0.26;100.00;61972.84;4973339;29;20288;-82
2023/01/29 08:45:15;;;;;;;10.95;6.65;;;;;;;-0.31;100.00;61967.72;4987962;28;20426;-81
2023/01/29 08:47:46;;;;;;;10.65;6.78;;;;;;;-0.15;100.00;61981.09;4992884;28;20235;-82
2023/01/29 08:50:14;;;;;;;9.82;6.63;;;;;;;-0.09;100.00;61987.25;4989462;28;20235;-81
2023/01/29 08:52:42;;;;;;;6.97;6.32;;;;;;;-0.18;100.00;61981.03;4987111;28;20236;-82
2023/01/29 08:55:10;;;;;;;9.10;7.05;;;;;;;0.12;100.00;62011.28;4974941;28;20223;-81
2023/01/29 08:57:37;;;;;;;8.63;6.30;;;;;;;0.02;100.00;61996.00;4992393;28;20259;-81
2023/01/29 09:00:06;;;;;;;8.73;6.28;;;;;;;0.31;100.00;62028.22;4992355;28;20223;-82
2023/01/29 09:02:35;;;;;;;10.52;6.70;;;;;;;0.30;100.00;62029.72;4990006;28;20275;-81
2023/01/29 09:05:03;;;;;;;8.05;6.50;;;;;;;0.18;100.00;62014.91;4990395;28;20192;-82
2023/01/29 09:07:33;;;;;;;11.80;7.80;;;;;;;0.25;100.00;62021.56;4991062;28;20232;-82
2023/01/29 09:10:00;;;;;;;8.18;6.78;;;;;;;-0.13;100.00;61988.66;4991500;28;20267;-82
2023/01/29 09:12:28;;;;;;;11.15;7.53;;;;;;;0.34;100.00;62030.81;4991884;28;20255;-82
2023/01/29 09:14:55;;;;;;;10.57;7.85;;;;;;;0.43;100.00;62040.03;4991130;28;20634;-81
2023/01/29 09:17:23;;;;;;;9.43;6.70;;;;;;;0.44;100.00;62046.06;4991590;28;20228;-82
2023/01/29 09:19:52;;;;;;;13.20;7.50;;;;;;;0.48;100.00;62045.16;4990963;28;20212;-81
2023/01/29 09:22:19;;;;;;;9.05;8.07;;;;;;;0.45;100.00;62045.09;4972919;28;20244;-84
2023/01/29 09:24:51;;;;;;;8.82;7.10;;;;;;;-0.04;100.00;61994.88;4974746;29;20200;-83
2023/01/29 09:27:21;;;;;;;11.13;7.70;;;;;;;0.26;100.00;62027.63;4976921;28;20283;-83
2023/01/29 09:29:48;;;;;;;13.10;8.73;;;;;;;0.17;100.00;62021.41;4988848;28;20457;-81
2023/01/29 09:32:15;;;;;;;9.55;7.50;;;;;;;0.20;100.00;62021.47;4990652;28;20563;-84
2023/01/29 09:34:43;;;;;;;11.13;7.05;;;;;;;0.08;100.00;62007.16;4992396;28;20208;-82
2023/01/29 09:37:11;;;;;;;7.13;6.10;;;;;;;0.25;100.00;62026.56;4991234;28;20236;-78
2023/01/29 09:39:38;;;;;;;8.40;7.35;;;;;;;0.33;100.00;62032.78;4981137;28;20209;-82
2023/01/29 09:42:10;;;;;;;10.57;7.68;;;;;;;0.46;100.00;62048.63;4985437;28;20286;-82
2023/01/29 09:44:52;;;;;;;9.95;6.80;;;;;;;0.39;100.00;62035.94;4991858;28;20472;-80
2023/01/29 09:47:21;;;;;;;10.63;7.20;;;;;;;0.33;100.00;62029.78;4986109;28;20225;-82
2023/01/29 09:49:52;;;;;;;10.93;8.45;;;;;;;0.04;100.00;62000.56;4978361;28;20232;-81
2023/01/29 09:55:21;;;;;;;13.02;8.80;;;;;;;0.03;100.00;62004.03;4990003;28;20204;-82
2023/01/29 09:57:52;;;;;;;10.60;7.85;;;;;;;0.49;100.00;62049.19;4977142;28;20528;-82
2023/01/29 10:00:25;;;;;;;10.40;8.13;;;;;;;0.52;100.00;62054.78;4971036;28;20209;-82
2023/01/29 10:03:29;;;;;;;10.98;7.65;;;;;;;0.70;100.00;62065.19;4992212;28;20232;-82
2023/01/29 10:06:15;;;;;;;12.50;7.43;;;;;;;0.55;100.00;62057.34;4959917;28;20271;-83
2023/01/29 10:09:03;;;;;;;13.13;8.73;;;;;;;0.51;100.00;62050.72;4989402;28;20203;-80
2023/01/29 10:11:40;;;;;;;11.05;8.05;;;;;;;0.61;100.00;62063.47;4990191;28;20267;-80
2023/01/29 10:14:18;;;;;;;9.05;7.88;;;;;;;0.65;100.00;62070.09;4988866;28;20199;-81
2023/01/29 10:17:03;;;;;;;13.95;8.75;;;;;;;0.32;100.00;62034.28;4971798;28;20228;-82
2023/01/29 10:20:02;;;;;;;13.32;8.65;;;;;;;0.53;100.00;62050.81;4983804;28;20222;-82
2023/01/29 10:22:56;;;;;;;8.30;6.30;;;;;;;0.43;100.00;62042.53;4989866;28;20235;-81
2023/01/29 10:25:25;;;;;;;12.82;7.60;;;;;;;0.37;100.00;62034.38;4971376;28;20232;-80
2023/01/29 10:27:55;;;;;;;15.10;9.90;;;;;;;0.48;100.00;62050.16;4976846;28;20231;-81
2023/01/29 10:30:31;;;;;;;12.20;8.48;;;;;;;0.43;100.00;62043.03;4990435;28;20252;-83
2023/01/29 10:33:03;;;;;;;11.55;8.60;;;;;;;0.62;100.00;62065.03;4993118;28;20223;-81
2023/01/29 10:35:34;;;;;;;16.15;9.52;;;;;;;0.54;100.00;62054.31;4986156;28;20212;-80
2023/01/29 10:38:18;;;;;;;11.77;8.57;;;;;;;0.53;100.00;62052.78;4990239;28;20272;-81
2023/01/29 10:40:54;;;;;;;10.55;8.23;;;;;;;0.54;100.00;62051.81;4983901;28;20197;-81
2023/01/29 10:43:36;;;;;;;10.10;7.90;;;;;;;0.08;100.00;62012.19;4974093;28;20212;-79
2023/01/29 10:46:15;;;;;;;12.82;8.43;;;;;;;0.10;100.00;62011.72;4984163;28;20228;-85
2023/01/29 10:48:57;;;;;;;15.55;9.35;;;;;;;-0.32;100.00;61968.69;4982422;28;20204;-79
2023/01/29 10:51:46;;;;;;;12.88;8.57;;;;;;;-0.20;100.00;61979.00;4977346;28;20289;-76
2023/01/29 10:54:35;;;;;;;13.68;8.65;;;;;;;-0.34;100.00;61964.13;4986890;28;20224;-82
2023/01/29 10:57:13;;;;;;;17.70;10.00;;;;;;;0.06;100.00;62007.09;4983292;28;20224;-85
2023/01/29 10:59:56;;;;;;;6.75;4.90;;;;;;;0.27;100.00;62024.16;4984792;28;20215;-80
2023/01/29 11:02:24;;;;;;;16.40;9.90;;;;;;;0.11;100.00;62005.25;4986327;28;20227;-82
2023/01/29 11:04:52;;;;;;;15.07;9.38;;;;;;;0.25;100.00;62027.09;4981997;28;20267;-85
2023/01/29 11:07:22;;;;;;;15.75;10.57;;;;;;;0.47;100.00;62039.63;4983915;28;20232;-84
2023/01/29 11:09:57;;;;;;;16.60;11.23;;;;;;;0.49;100.00;62049.19;4980547;28;20251;-83
2023/01/29 11:12:29;;;;;;;17.05;9.90;;;;;;;0.40;100.00;62039.97;4980174;28;20228;-84
2023/01/29 11:15:23;;;;;;;15.95;9.95;;;;;;;0.05;100.00;62004.09;4985804;28;20193;-80
2023/01/29 11:18:12;;;;;;;14.07;9.60;;;;;;;0.38;100.00;62040.41;4979596;28;20240;-85
2023/01/29 11:20:40;;;;;;;13.35;9.48;;;;;;;0.57;100.00;62056.91;4977716;28;20204;-83
2023/01/29 11:23:26;;;;;;;17.20;10.70;;;;;;;0.46;100.00;62048.63;4993101;28;20240;-84
2023/01/29 11:25:55;;;;;;;14.63;9.02;;;;;;;0.46;100.00;62046.13;4989847;28;20211;-83
2023/01/29 11:28:42;;;;;;;18.00;9.98;;;;;;;0.62;100.00;62059.50;4988990;28;20224;-83
2023/01/29 11:31:21;;;;;;;19.52;9.25;;;;;;;0.71;100.00;62071.22;4991027;28;20473;-84
2023/01/29 11:33:51;;;;;;;17.55;10.30;;;;;;;0.78;100.00;62078.94;4979276;28;20197;-86
2023/01/29 11:36:32;;;;;;;14.93;8.13;;;;;;;0.30;100.00;62029.19;4981383;28;20220;-81
2023/01/29 11:39:15;;;;;;;11.90;8.05;;;;;;;0.38;100.00;62037.91;4978514;28;20208;-80
2023/01/29 11:41:44;;;;;;;10.65;7.88;;;;;;;0.31;100.00;62030.72;4979348;28;20233;-79
2023/01/29 11:44:35;;;;;;;17.15;11.15;;;;;;;0.60;100.00;62060.47;4984896;28;20209;-83
2023/01/29 11:47:17;;;;;;;15.20;10.15;;;;;;;0.69;100.00;62071.69;4976218;28;20228;-84
2023/01/29 11:49:48;;;;;;;15.07;9.80;;;;;;;0.82;100.00;62078.03;4976740;28;20204;-85
2023/01/29 11:52:17;;;;;;;17.45;10.98;;;;;;;0.86;100.00;62081.63;4985886;28;20234;-82
2023/01/29 11:54:49;;;;;;;17.85;9.82;;;;;;;1.20;100.00;62121.50;4986197;28;20204;-83
2023/01/29 11:57:34;;;;;;;12.95;9.10;;;;;;;1.28;100.00;62127.19;4983330;28;20300;-80
2023/01/29 12:00:06;;;;;;;14.38;9.40;;;;;;;1.18;100.00;62124.97;4977740;28;20208;-82
2023/01/29 12:02:37;;;;;;;19.02;9.57;;;;;;;0.96;100.00;62099.38;4979847;28;20236;-82
2023/01/29 12:05:14;;;;;;;16.27;10.00;;;;;;;0.60;100.00;62059.97;4981384;28;20196;-83
2023/01/29 12:07:42;;;;;;;15.15;9.20;;;;;;;0.56;100.00;62053.88;4977496;28;20305;-80
2023/01/29 12:10:30;;;;;;;14.35;8.95;;;;;;;0.83;100.00;62083.53;4984435;28;20272;-84
2023/01/29 12:13:05;;;;;;;16.00;10.63;;;;;;;1.17;100.00;62113.91;4987731;28;20252;-84